createdAt,value
2019-05-05T00:04:46.698Z,6.03
2019-05-05T00:09:38.958Z,5.03
2019-05-05T00:14:35.832Z,4.67
2019-05-05T00:19:32.585Z,6.83
2019-05-05T00:24:21.946Z,5.20
2019-05-05T00:29:14.982Z,4.77
2019-05-05T00:34:07.404Z,11.00
2019-05-05T00:39:00.239Z,15.27
2019-05-05T00:43:52.643Z,9.13
2019-05-05T00:48:47.091Z,13.57
2019-05-05T00:53:39.404Z,7.60
2019-05-05T00:58:35.211Z,13.00
2019-05-05T01:03:27.957Z,14.03
2019-05-05T01:08:25.010Z,11.87
2019-05-05T01:13:17.474Z,12.27
2019-05-05T01:18:10.380Z,7.20
2019-05-05T01:23:04.463Z,14.27
2019-05-05T01:27:56.915Z,19.53
2019-05-05T01:32:50.948Z,15.67
2019-05-05T01:37:51.365Z,18.23
2019-05-05T01:42:44.687Z,9.73
2019-05-05T01:47:37.282Z,10.20
2019-05-05T01:52:29.793Z,6.20
2019-05-05T01:57:22.169Z,19.20
2019-05-05T02:02:14.850Z,20.20
2019-05-05T02:07:07.370Z,10.60
2019-05-05T02:11:59.520Z,15.57
2019-05-05T02:16:52.589Z,17.23
2019-05-05T02:21:46.288Z,19.83
2019-05-05T02:26:38.862Z,17.57
2019-05-05T02:31:35.767Z,14.47
2019-05-05T02:36:28.274Z,10.47
2019-05-05T02:41:21.404Z,9.77
2019-05-05T02:46:25.071Z,7.77
2019-05-05T02:51:17.609Z,10.37
2019-05-05T02:56:15.824Z,9.97
2019-05-05T03:01:26.623Z,10.17
2019-05-05T03:06:18.947Z,12.90
2019-05-05T03:11:14.554Z,9.90
2019-05-05T03:16:23.576Z,9.37
2019-05-05T03:21:16.345Z,10.30
2019-05-05T03:26:08.617Z,12.87
2019-05-05T03:31:04.755Z,20.37
2019-05-05T03:35:55.661Z,11.00
2019-05-05T03:40:49.484Z,14.30
2019-05-05T03:45:49.334Z,21.53
2019-05-05T03:50:41.578Z,16.30
2019-05-05T03:55:34.688Z,14.90
2019-05-05T04:00:48.339Z,12.50
2019-05-05T04:05:44.392Z,11.13
2019-05-05T04:10:37.190Z,12.03
2019-05-05T04:15:30.378Z,13.97
2019-05-05T04:20:24.561Z,13.97
2019-05-05T04:25:17.224Z,14.13
2019-05-05T04:30:09.845Z,32.83
2019-05-05T04:35:03.659Z,13.83
2019-05-05T04:39:56.016Z,11.83
2019-05-05T04:44:48.348Z,11.67
2019-05-05T04:50:00.377Z,12.93
2019-05-05T04:54:55.685Z,13.93
2019-05-05T04:59:49.992Z,12.87
2019-05-05T05:04:53.612Z,11.73
2019-05-05T05:09:46.278Z,12.20
2019-05-05T05:14:38.872Z,11.27
2019-05-05T05:19:33.405Z,11.97
2019-05-05T05:24:25.689Z,14.87
2019-05-05T05:29:18.439Z,13.20
2019-05-05T05:34:11.118Z,19.50
2019-05-05T05:39:13.956Z,18.77
2019-05-05T05:44:10.022Z,16.17
2019-05-05T05:49:06.368Z,15.47
2019-05-05T05:53:58.353Z,17.00
2019-05-05T05:58:50.729Z,15.73
2019-05-05T06:03:44.352Z,14.37
2019-05-05T06:08:37.047Z,15.83
2019-05-05T06:13:29.443Z,14.67
2019-05-05T06:18:21.710Z,14.27
2019-05-05T06:23:14.778Z,13.87
2019-05-05T06:28:07.575Z,14.13
2019-05-05T06:33:00.396Z,14.67
2019-05-05T06:37:55.430Z,12.83
2019-05-05T06:42:49.635Z,12.30
2019-05-05T06:47:44.415Z,12.87
2019-05-05T06:52:44.354Z,11.37
2019-05-05T06:57:30.565Z,12.67
2019-05-05T07:02:23.826Z,9.80
2019-05-05T07:07:16.236Z,9.13
2019-05-05T07:12:08.982Z,8.10
2019-05-05T07:17:01.320Z,7.67
2019-05-05T07:21:54.041Z,8.03
2019-05-05T07:26:46.296Z,6.30
2019-05-05T07:31:38.619Z,7.70
2019-05-05T07:41:24.933Z,5.33
2019-05-05T07:46:17.251Z,5.77
2019-05-05T07:51:09.640Z,5.53
2019-05-05T07:56:03.934Z,4.40
2019-05-05T08:00:56.142Z,4.83
2019-05-05T08:05:48.383Z,4.03
2019-05-05T08:10:41.022Z,4.00
2019-05-05T08:15:34.302Z,3.80
2019-05-05T08:20:31.133Z,4.07
2019-05-05T08:25:37.518Z,3.80
2019-05-05T08:30:35.989Z,4.53
2019-05-05T08:35:28.662Z,4.23
2019-05-05T08:40:21.301Z,3.00
2019-05-05T08:45:13.970Z,2.20
2019-05-05T08:50:09.123Z,2.55
2019-05-05T08:55:01.583Z,2.58
2019-05-05T08:59:54.584Z,3.20
2019-05-05T09:04:47.016Z,2.73
2019-05-05T09:09:39.718Z,2.42
2019-05-05T09:14:34.417Z,2.90
2019-05-05T09:19:26.025Z,2.50
2019-05-05T09:24:20.010Z,2.73
2019-05-05T09:29:29.894Z,2.20
2019-05-05T09:34:24.010Z,1.60
2019-05-05T09:39:16.502Z,1.82
2019-05-05T09:44:09.261Z,1.60
2019-05-05T09:49:01.554Z,1.42
2019-05-05T09:53:54.274Z,1.47
2019-05-05T09:58:46.920Z,1.72
2019-05-05T10:03:39.569Z,2.20
2019-05-05T10:08:33.947Z,2.40
2019-05-05T10:13:26.147Z,2.00
2019-05-05T10:18:18.610Z,1.90
2019-05-05T10:23:11.183Z,2.10
2019-05-05T10:28:04.766Z,2.05
2019-05-05T10:32:57.064Z,2.90
2019-05-05T10:37:49.472Z,2.60
2019-05-05T10:42:50.970Z,2.02
2019-05-05T10:47:44.060Z,1.90
2019-05-05T10:52:36.776Z,2.45
2019-05-05T10:57:29.077Z,2.30
2019-05-05T11:02:21.705Z,2.50
2019-05-05T11:07:14.566Z,2.75
2019-05-05T11:12:07.567Z,2.77
2019-05-05T11:17:00.165Z,2.60
2019-05-05T11:21:53.996Z,2.75
2019-05-05T11:26:46.511Z,2.80
2019-05-05T11:31:39.305Z,3.17
2019-05-05T11:36:38.714Z,3.70
2019-05-05T11:41:30.790Z,3.47
2019-05-05T11:46:24.738Z,2.95
2019-05-05T11:51:17.338Z,2.85
2019-05-05T11:56:09.824Z,3.05
2019-05-05T12:01:03.708Z,3.00
2019-05-05T12:05:56.491Z,2.92
2019-05-05T12:10:50.713Z,2.77
2019-05-05T12:15:44.723Z,3.22
2019-05-05T12:20:39.005Z,3.50
2019-05-05T12:25:46.150Z,2.85
2019-05-05T12:30:38.441Z,2.85
2019-05-05T12:35:30.765Z,3.58
2019-05-05T12:40:24.619Z,3.20
2019-05-05T12:45:18.444Z,2.30
2019-05-05T12:50:10.786Z,3.08
2019-05-05T12:55:05.100Z,2.87
2019-05-05T12:59:57.661Z,3.00
2019-05-05T13:04:50.067Z,3.00
2019-05-05T13:09:44.099Z,3.17
2019-05-05T13:14:36.688Z,2.83
2019-05-05T13:19:30.998Z,3.05
2019-05-05T13:24:25.062Z,2.40
2019-05-05T13:29:17.526Z,2.30
2019-05-05T13:34:10.528Z,2.55
2019-05-05T13:39:04.773Z,2.37
2019-05-05T13:43:59.170Z,2.30
2019-05-05T13:48:53.812Z,2.27
2019-05-05T13:53:46.963Z,2.25
2019-05-05T13:58:43.475Z,2.80
2019-05-05T14:03:37.119Z,3.95
2019-05-05T14:08:29.699Z,3.75
2019-05-05T14:13:24.843Z,3.58
2019-05-05T14:18:17.821Z,3.22
2019-05-05T14:23:10.318Z,2.65
2019-05-05T14:28:03.892Z,2.58
2019-05-05T14:32:58.428Z,3.08
2019-05-05T14:37:57.287Z,3.10
2019-05-05T14:42:49.800Z,3.10
2019-05-05T14:47:44.118Z,2.80
2019-05-05T14:52:36.633Z,2.60
2019-05-05T14:57:28.891Z,2.67
2019-05-05T15:02:21.441Z,2.70
2019-05-05T15:07:15.334Z,2.62
2019-05-05T15:12:18.207Z,2.72
2019-05-05T15:17:10.846Z,2.65
2019-05-05T15:22:03.235Z,3.10
2019-05-05T15:26:55.880Z,3.35
2019-05-05T15:31:48.241Z,3.15
2019-05-05T15:36:40.727Z,3.70
2019-05-05T15:41:34.123Z,3.52
2019-05-05T15:46:26.756Z,4.28
2019-05-05T15:51:19.570Z,3.50
2019-05-05T15:56:13.752Z,3.08
2019-05-05T16:01:05.771Z,2.90
2019-05-05T16:05:57.940Z,2.92
2019-05-05T16:10:50.769Z,3.55
2019-05-05T16:15:44.730Z,3.47
2019-05-05T16:20:44.418Z,4.25
2019-05-05T16:25:37.066Z,3.70
2019-05-05T16:30:29.061Z,3.70
2019-05-05T16:35:23.693Z,3.70
2019-05-05T16:40:16.697Z,4.12
2019-05-05T16:45:09.276Z,3.47
2019-05-05T16:50:01.377Z,3.70
2019-05-05T16:55:04.767Z,3.70
2019-05-05T16:59:57.277Z,3.52
2019-05-05T17:04:49.839Z,4.50
2019-05-05T17:09:43.714Z,3.90
2019-05-05T17:14:38.194Z,5.45
2019-05-05T17:19:33.769Z,4.40
2019-05-05T17:24:25.964Z,5.35
2019-05-05T17:29:18.482Z,5.00
2019-05-05T17:34:11.219Z,4.17
2019-05-05T17:39:06.272Z,4.00
2019-05-05T17:44:00.566Z,4.08
2019-05-05T17:48:54.623Z,4.78
2019-05-05T17:53:54.755Z,5.10
2019-05-05T17:58:47.042Z,6.33
2019-05-05T18:03:39.485Z,4.83
2019-05-05T18:08:39.928Z,5.20
2019-05-05T18:13:35.163Z,5.05
2019-05-05T18:18:27.638Z,4.92
2019-05-05T18:23:20.114Z,5.90
2019-05-05T18:28:19.407Z,6.10
2019-05-05T18:33:06.787Z,4.75
2019-05-05T18:37:59.210Z,5.07
2019-05-05T18:42:51.662Z,5.53
2019-05-05T18:47:44.331Z,6.47
2019-05-05T18:52:36.619Z,6.93
2019-05-05T18:57:29.200Z,7.10
2019-05-05T19:02:39.643Z,5.60
2019-05-05T19:07:36.910Z,5.73
2019-05-05T19:12:29.086Z,5.07
2019-05-05T19:17:23.553Z,6.67
2019-05-05T19:22:16.555Z,5.47
2019-05-05T19:27:09.848Z,5.03
2019-05-05T19:32:04.131Z,6.13
2019-05-05T19:36:56.866Z,5.20
2019-05-05T19:41:49.018Z,5.90
2019-05-05T19:46:49.594Z,5.80
2019-05-05T19:51:41.780Z,6.00
2019-05-05T19:56:34.533Z,8.50
2019-05-05T20:01:35.389Z,8.47
2019-05-05T20:06:23.700Z,10.40
2019-05-05T20:11:15.659Z,11.77
2019-05-05T20:16:11.348Z,10.10
2019-05-05T20:21:24.456Z,14.00
2019-05-05T20:26:16.949Z,11.03
2019-05-05T20:31:09.260Z,10.70
2019-05-05T20:36:09.469Z,11.13
2019-05-05T20:41:14.132Z,8.23
2019-05-05T20:46:06.250Z,8.23
2019-05-05T20:50:58.564Z,8.80
2019-05-05T20:55:50.915Z,13.43
2019-05-05T21:00:44.224Z,15.90
2019-05-05T21:05:37.047Z,9.57
2019-05-05T21:10:29.326Z,7.80
2019-05-05T21:15:22.003Z,8.40
2019-05-05T21:20:14.720Z,7.33
2019-05-05T21:25:09.255Z,8.77
2019-05-05T21:30:03.872Z,94.47
2019-05-05T21:34:55.557Z,76.47
2019-05-05T21:39:48.190Z,33.20
2019-05-05T21:44:40.443Z,15.03
2019-05-05T21:49:33.792Z,9.07
2019-05-05T21:54:28.207Z,8.17
2019-05-05T21:59:20.827Z,8.03
2019-05-05T22:04:15.101Z,8.47
2019-05-05T22:09:07.757Z,7.50
2019-05-05T22:13:59.851Z,7.17
2019-05-05T22:18:54.015Z,8.83
2019-05-05T22:23:47.780Z,15.97
2019-05-05T22:28:40.443Z,15.97
2019-05-05T22:33:33.993Z,12.97
2019-05-05T22:38:26.321Z,30.30
2019-05-05T22:43:18.763Z,16.73
2019-05-05T22:48:10.913Z,23.90
2019-05-05T22:53:03.288Z,15.43
2019-05-05T22:57:55.656Z,17.47
2019-05-05T23:03:04.342Z,14.87
2019-05-05T23:07:56.484Z,27.00
2019-05-05T23:12:48.873Z,22.07
2019-05-05T23:17:43.784Z,16.10
2019-05-05T23:22:54.839Z,13.80
2019-05-05T23:27:48.332Z,13.43
2019-05-05T23:32:40.523Z,10.13
2019-05-05T23:37:34.318Z,17.20
2019-05-05T23:42:26.544Z,17.63
2019-05-05T23:47:19.524Z,17.50
2019-05-05T23:52:11.800Z,13.23
2019-05-05T23:57:04.696Z,12.50
